Sivas, Turkey
Current Conditions -  °F | °C
As of 10:50 AM on Sunday 26 Oct 2014 (Local Time) from LTAR Reporting Station
Broken Clouds Broken Clouds  
Wind Chill: 52°   Ceiling: 10000
Heat Index: 52°   Visibility: 6mi
Dew Point: 43°   Wind: 7mph
Humidity: 71%   Direction: 150°SSE
Pressure: 30.15"   Gusts: NA
Location:  39.75°N, 37.02°E
Report Text: LTAR 260750Z 15006KT 9999 SCT040 BKN100 11/06 Q1021
Loading
Personal Weather Stations






























Interactive Weather Map
Tropical Storm Tracking
New forecast layout! Learn more

10-Day Weather Forecast

Advertisements
Track Severe Weather on mobile